sensor_id;sensor_type;location;lat;lon;timestamp;P1;durP1;ratioP1;P2;durP2;ratioP2
21567;SDS011;10944;42.590;12.630;2023-02-26T00:00:02;31.08;;;12.98;;
21567;SDS011;10944;42.590;12.630;2023-02-26T00:02:36;30.23;;;12.73;;
21567;SDS011;10944;42.590;12.630;2023-02-26T00:05:03;36.70;;;14.00;;
21567;SDS011;10944;42.590;12.630;2023-02-26T00:07:29;26.85;;;12.52;;
21567;SDS011;10944;42.590;12.630;2023-02-26T00:09:55;31.65;;;12.98;;
21567;SDS011;10944;42.590;12.630;2023-02-26T00:12:21;29.15;;;13.20;;
21567;SDS011;10944;42.590;12.630;2023-02-26T00:14:47;28.92;;;13.20;;
21567;SDS011;10944;42.590;12.630;2023-02-26T00:20:08;35.78;;;13.30;;
21567;SDS011;10944;42.590;12.630;2023-02-26T00:22:36;34.70;;;13.38;;
21567;SDS011;10944;42.590;12.630;2023-02-26T00:25:05;31.08;;;11.68;;
21567;SDS011;10944;42.590;12.630;2023-02-26T00:27:31;29.40;;;12.23;;
21567;SDS011;10944;42.590;12.630;2023-02-26T00:29:56;26.80;;;12.13;;
21567;SDS011;10944;42.590;12.630;2023-02-26T00:32:22;31.55;;;12.25;;
21567;SDS011;10944;42.590;12.630;2023-02-26T00:34:48;27.40;;;11.65;;
21567;SDS011;10944;42.590;12.630;2023-02-26T00:43:06;29.17;;;11.45;;
21567;SDS011;10944;42.590;12.630;2023-02-26T00:45:34;31.67;;;12.48;;
21567;SDS011;10944;42.590;12.630;2023-02-26T00:50:31;27.15;;;11.63;;
21567;SDS011;10944;42.590;12.630;2023-02-26T00:55:31;27.13;;;12.40;;
21567;SDS011;10944;42.590;12.630;2023-02-26T00:57:57;23.27;;;12.38;;
21567;SDS011;10944;42.590;12.630;2023-02-26T01:00:23;25.90;;;12.35;;
21567;SDS011;10944;42.590;12.630;2023-02-26T01:02:49;27.00;;;11.88;;
21567;SDS011;10944;42.590;12.630;2023-02-26T01:05:15;23.80;;;12.27;;
21567;SDS011;10944;42.590;12.630;2023-02-26T01:10:38;29.52;;;12.23;;
21567;SDS011;10944;42.590;12.630;2023-02-26T01:13:04;31.63;;;12.32;;
21567;SDS011;10944;42.590;12.630;2023-02-26T01:15:30;31.50;;;12.52;;
21567;SDS011;10944;42.590;12.630;2023-02-26T01:20:23;24.40;;;11.85;;
21567;SDS011;10944;42.590;12.630;2023-02-26T01:23:03;26.52;;;13.35;;
21567;SDS011;10944;42.590;12.630;2023-02-26T01:25:40;30.73;;;12.77;;
21567;SDS011;10944;42.590;12.630;2023-02-26T01:28:14;27.30;;;12.45;;
21567;SDS011;10944;42.590;12.630;2023-02-26T01:30:40;23.65;;;12.38;;
21567;SDS011;10944;42.590;12.630;2023-02-26T01:35:39;25.08;;;12.75;;
21567;SDS011;10944;42.590;12.630;2023-02-26T01:46:45;29.40;;;12.10;;
21567;SDS011;10944;42.590;12.630;2023-02-26T01:49:19;29.75;;;13.55;;
21567;SDS011;10944;42.590;12.630;2023-02-26T01:51:52;29.67;;;12.57;;
21567;SDS011;10944;42.590;12.630;2023-02-26T01:59:32;33.33;;;13.23;;
21567;SDS011;10944;42.590;12.630;2023-02-26T02:02:01;30.00;;;12.75;;
21567;SDS011;10944;42.590;12.630;2023-02-26T02:04:30;35.42;;;13.90;;
21567;SDS011;10944;42.590;12.630;2023-02-26T02:06:58;30.95;;;12.75;;
21567;SDS011;10944;42.590;12.630;2023-02-26T02:09:24;31.95;;;13.15;;
21567;SDS011;10944;42.590;12.630;2023-02-26T02:14:28;29.48;;;13.07;;
21567;SDS011;10944;42.590;12.630;2023-02-26T02:17:30;26.30;;;11.48;;
21567;SDS011;10944;42.590;12.630;2023-02-26T02:33:48;27.25;;;11.48;;
21567;SDS011;10944;42.590;12.630;2023-02-26T02:36:26;24.05;;;11.27;;
21567;SDS011;10944;42.590;12.630;2023-02-26T02:38:59;24.08;;;10.80;;
21567;SDS011;10944;42.590;12.630;2023-02-26T02:41:30;23.42;;;11.27;;
21567;SDS011;10944;42.590;12.630;2023-02-26T02:44:00;24.15;;;10.82;;
21567;SDS011;10944;42.590;12.630;2023-02-26T02:46:31;24.25;;;10.45;;
21567;SDS011;10944;42.590;12.630;2023-02-26T02:49:01;24.27;;;10.82;;
21567;SDS011;10944;42.590;12.630;2023-02-26T02:51:41;23.40;;;10.50;;
21567;SDS011;10944;42.590;12.630;2023-02-26T02:54:48;25.33;;;10.63;;
21567;SDS011;10944;42.590;12.630;2023-02-26T02:57:29;24.17;;;10.10;;
21567;SDS011;10944;42.590;12.630;2023-02-26T03:00:05;25.05;;;10.30;;
21567;SDS011;10944;42.590;12.630;2023-02-26T03:05:18;20.98;;;10.23;;
21567;SDS011;10944;42.590;12.630;2023-02-26T03:07:46;23.58;;;10.48;;
21567;SDS011;10944;42.590;12.630;2023-02-26T03:10:21;24.80;;;10.20;;
21567;SDS011;10944;42.590;12.630;2023-02-26T03:12:47;27.40;;;10.55;;
21567;SDS011;10944;42.590;12.630;2023-02-26T03:15:12;25.75;;;10.40;;
21567;SDS011;10944;42.590;12.630;2023-02-26T03:20:28;20.92;;;8.15;;
21567;SDS011;10944;42.590;12.630;2023-02-26T03:23:10;21.67;;;8.90;;
21567;SDS011;10944;42.590;12.630;2023-02-26T03:26:02;19.88;;;8.93;;
21567;SDS011;10944;42.590;12.630;2023-02-26T03:28:37;21.35;;;9.40;;
21567;SDS011;10944;42.590;12.630;2023-02-26T03:31:14;24.73;;;8.95;;
21567;SDS011;10944;42.590;12.630;2023-02-26T03:36:42;22.77;;;9.48;;
21567;SDS011;10944;42.590;12.630;2023-02-26T03:39:18;23.33;;;9.90;;
21567;SDS011;10944;42.590;12.630;2023-02-26T03:41:55;20.73;;;9.80;;
21567;SDS011;10944;42.590;12.630;2023-02-26T03:44:26;19.88;;;8.88;;
21567;SDS011;10944;42.590;12.630;2023-02-26T03:46:56;20.98;;;9.10;;
21567;SDS011;10944;42.590;12.630;2023-02-26T03:49:28;26.67;;;9.82;;
21567;SDS011;10944;42.590;12.630;2023-02-26T03:52:00;22.75;;;9.70;;
21567;SDS011;10944;42.590;12.630;2023-02-26T03:54:47;20.90;;;9.43;;
21567;SDS011;10944;42.590;12.630;2023-02-26T03:57:30;18.80;;;8.93;;
21567;SDS011;10944;42.590;12.630;2023-02-26T03:59:55;19.92;;;9.43;;
21567;SDS011;10944;42.590;12.630;2023-02-26T04:02:27;19.98;;;9.25;;
21567;SDS011;10944;42.590;12.630;2023-02-26T04:08:00;22.75;;;8.15;;
21567;SDS011;10944;42.590;12.630;2023-02-26T04:10:46;15.52;;;8.20;;
21567;SDS011;10944;42.590;12.630;2023-02-26T04:13:23;20.20;;;7.80;;
21567;SDS011;10944;42.590;12.630;2023-02-26T04:15:49;16.85;;;6.78;;
21567;SDS011;10944;42.590;12.630;2023-02-26T04:18:15;16.48;;;6.53;;
21567;SDS011;10944;42.590;12.630;2023-02-26T04:20:40;15.82;;;5.95;;
21567;SDS011;10944;42.590;12.630;2023-02-26T04:23:06;15.38;;;5.40;;
21567;SDS011;10944;42.590;12.630;2023-02-26T04:25:32;15.00;;;5.93;;
21567;SDS011;10944;42.590;12.630;2023-02-26T04:27:58;14.85;;;6.05;;
21567;SDS011;10944;42.590;12.630;2023-02-26T04:30:23;14.27;;;6.43;;
21567;SDS011;10944;42.590;12.630;2023-02-26T04:32:49;13.82;;;5.90;;
21567;SDS011;10944;42.590;12.630;2023-02-26T04:35:15;14.13;;;5.57;;
21567;SDS011;10944;42.590;12.630;2023-02-26T04:37:40;17.20;;;5.88;;
21567;SDS011;10944;42.590;12.630;2023-02-26T04:40:06;11.25;;;6.32;;
21567;SDS011;10944;42.590;12.630;2023-02-26T04:42:32;14.00;;;5.57;;
21567;SDS011;10944;42.590;12.630;2023-02-26T04:44:58;16.10;;;6.43;;
21567;SDS011;10944;42.590;12.630;2023-02-26T04:47:24;12.00;;;5.40;;
21567;SDS011;10944;42.590;12.630;2023-02-26T04:49:49;12.57;;;5.82;;
21567;SDS011;10944;42.590;12.630;2023-02-26T04:52:15;10.13;;;5.00;;
21567;SDS011;10944;42.590;12.630;2023-02-26T04:54:41;10.80;;;4.70;;
21567;SDS011;10944;42.590;12.630;2023-02-26T04:57:06;11.05;;;3.90;;
21567;SDS011;10944;42.590;12.630;2023-02-26T04:59:32;11.10;;;4.40;;
21567;SDS011;10944;42.590;12.630;2023-02-26T05:01:58;11.65;;;4.20;;
21567;SDS011;10944;42.590;12.630;2023-02-26T05:04:23;10.80;;;4.20;;
21567;SDS011;10944;42.590;12.630;2023-02-26T05:06:49;9.88;;;3.75;;
21567;SDS011;10944;42.590;12.630;2023-02-26T05:09:15;12.45;;;4.10;;
21567;SDS011;10944;42.590;12.630;2023-02-26T05:11:41;8.93;;;3.90;;
21567;SDS011;10944;42.590;12.630;2023-02-26T05:14:06;8.88;;;3.60;;
21567;SDS011;10944;42.590;12.630;2023-02-26T05:16:32;10.05;;;3.28;;
21567;SDS011;10944;42.590;12.630;2023-02-26T05:18:58;9.40;;;3.38;;
21567;SDS011;10944;42.590;12.630;2023-02-26T05:21:24;8.23;;;3.55;;
21567;SDS011;10944;42.590;12.630;2023-02-26T05:23:50;6.28;;;2.72;;
21567;SDS011;10944;42.590;12.630;2023-02-26T05:26:15;7.85;;;2.90;;
21567;SDS011;10944;42.590;12.630;2023-02-26T05:28:41;7.00;;;2.75;;
21567;SDS011;10944;42.590;12.630;2023-02-26T05:31:10;5.60;;;2.47;;
21567;SDS011;10944;42.590;12.630;2023-02-26T05:33:36;8.85;;;2.83;;
21567;SDS011;10944;42.590;12.630;2023-02-26T05:36:02;7.43;;;2.90;;
21567;SDS011;10944;42.590;12.630;2023-02-26T05:38:31;8.68;;;3.17;;
21567;SDS011;10944;42.590;12.630;2023-02-26T05:40:56;5.13;;;2.88;;
21567;SDS011;10944;42.590;12.630;2023-02-26T05:43:23;6.45;;;2.97;;
21567;SDS011;10944;42.590;12.630;2023-02-26T05:45:49;7.00;;;2.70;;
21567;SDS011;10944;42.590;12.630;2023-02-26T05:48:16;6.72;;;3.00;;
21567;SDS011;10944;42.590;12.630;2023-02-26T05:50:41;13.02;;;4.13;;
21567;SDS011;10944;42.590;12.630;2023-02-26T05:53:07;9.88;;;4.05;;
21567;SDS011;10944;42.590;12.630;2023-02-26T05:55:33;14.85;;;3.95;;
21567;SDS011;10944;42.590;12.630;2023-02-26T05:57:58;9.00;;;3.58;;
21567;SDS011;10944;42.590;12.630;2023-02-26T06:00:24;7.38;;;3.25;;
21567;SDS011;10944;42.590;12.630;2023-02-26T06:02:51;13.93;;;3.67;;
21567;SDS011;10944;42.590;12.630;2023-02-26T06:05:16;11.13;;;3.67;;
21567;SDS011;10944;42.590;12.630;2023-02-26T06:07:42;10.15;;;4.07;;
21567;SDS011;10944;42.590;12.630;2023-02-26T06:10:08;9.88;;;3.83;;
21567;SDS011;10944;42.590;12.630;2023-02-26T06:12:35;8.90;;;4.00;;
21567;SDS011;10944;42.590;12.630;2023-02-26T06:15:01;10.65;;;4.18;;
21567;SDS011;10944;42.590;12.630;2023-02-26T06:17:27;11.27;;;3.97;;
21567;SDS011;10944;42.590;12.630;2023-02-26T06:19:53;10.20;;;4.43;;
21567;SDS011;10944;42.590;12.630;2023-02-26T06:22:19;13.52;;;4.28;;
21567;SDS011;10944;42.590;12.630;2023-02-26T06:24:44;12.23;;;4.68;;
21567;SDS011;10944;42.590;12.630;2023-02-26T06:27:10;8.98;;;4.18;;
21567;SDS011;10944;42.590;12.630;2023-02-26T06:29:36;10.90;;;4.63;;
21567;SDS011;10944;42.590;12.630;2023-02-26T06:32:03;11.05;;;4.60;;
21567;SDS011;10944;42.590;12.630;2023-02-26T06:34:29;13.48;;;5.68;;
21567;SDS011;10944;42.590;12.630;2023-02-26T06:36:55;15.00;;;5.60;;
21567;SDS011;10944;42.590;12.630;2023-02-26T06:39:21;7.82;;;4.03;;
21567;SDS011;10944;42.590;12.630;2023-02-26T06:41:46;10.43;;;5.32;;
21567;SDS011;10944;42.590;12.630;2023-02-26T06:44:12;12.15;;;4.85;;
21567;SDS011;10944;42.590;12.630;2023-02-26T06:46:38;11.18;;;5.10;;
21567;SDS011;10944;42.590;12.630;2023-02-26T06:49:03;9.15;;;4.85;;
21567;SDS011;10944;42.590;12.630;2023-02-26T06:51:30;12.80;;;4.60;;
21567;SDS011;10944;42.590;12.630;2023-02-26T06:53:55;11.18;;;4.80;;
21567;SDS011;10944;42.590;12.630;2023-02-26T06:56:21;11.57;;;4.88;;
21567;SDS011;10944;42.590;12.630;2023-02-26T06:58:48;9.13;;;4.38;;
21567;SDS011;10944;42.590;12.630;2023-02-26T07:01:13;16.20;;;4.75;;
21567;SDS011;10944;42.590;12.630;2023-02-26T07:03:40;10.65;;;4.43;;
21567;SDS011;10944;42.590;12.630;2023-02-26T07:06:06;10.13;;;4.93;;
21567;SDS011;10944;42.590;12.630;2023-02-26T07:08:33;10.85;;;4.88;;
21567;SDS011;10944;42.590;12.630;2023-02-26T07:10:59;8.40;;;4.28;;
21567;SDS011;10944;42.590;12.630;2023-02-26T07:13:25;12.95;;;4.80;;
21567;SDS011;10944;42.590;12.630;2023-02-26T07:15:51;9.05;;;4.22;;
21567;SDS011;10944;42.590;12.630;2023-02-26T07:18:17;9.13;;;4.20;;
21567;SDS011;10944;42.590;12.630;2023-02-26T07:20:42;9.85;;;3.80;;
21567;SDS011;10944;42.590;12.630;2023-02-26T07:23:09;8.75;;;3.85;;
21567;SDS011;10944;42.590;12.630;2023-02-26T07:25:35;10.18;;;3.67;;
21567;SDS011;10944;42.590;12.630;2023-02-26T07:28:02;8.77;;;4.47;;
21567;SDS011;10944;42.590;12.630;2023-02-26T07:30:28;8.60;;;3.95;;
21567;SDS011;10944;42.590;12.630;2023-02-26T07:32:55;6.60;;;4.00;;
21567;SDS011;10944;42.590;12.630;2023-02-26T07:35:21;9.55;;;4.30;;
21567;SDS011;10944;42.590;12.630;2023-02-26T07:37:47;9.82;;;4.68;;
21567;SDS011;10944;42.590;12.630;2023-02-26T07:40:13;8.20;;;3.90;;
21567;SDS011;10944;42.590;12.630;2023-02-26T07:42:39;8.65;;;4.25;;
21567;SDS011;10944;42.590;12.630;2023-02-26T07:45:05;9.35;;;4.00;;
21567;SDS011;10944;42.590;12.630;2023-02-26T07:47:32;8.55;;;4.00;;
21567;SDS011;10944;42.590;12.630;2023-02-26T07:49:58;10.88;;;4.20;;
21567;SDS011;10944;42.590;12.630;2023-02-26T07:52:24;8.07;;;3.35;;
21567;SDS011;10944;42.590;12.630;2023-02-26T07:54:50;8.50;;;3.10;;
21567;SDS011;10944;42.590;12.630;2023-02-26T07:57:16;7.55;;;3.80;;
21567;SDS011;10944;42.590;12.630;2023-02-26T07:59:42;9.70;;;4.40;;
21567;SDS011;10944;42.590;12.630;2023-02-26T08:02:09;9.85;;;4.15;;
21567;SDS011;10944;42.590;12.630;2023-02-26T08:04:35;8.05;;;3.67;;
21567;SDS011;10944;42.590;12.630;2023-02-26T08:07:01;12.35;;;3.90;;
21567;SDS011;10944;42.590;12.630;2023-02-26T08:09:27;8.80;;;4.20;;
21567;SDS011;10944;42.590;12.630;2023-02-26T08:11:54;7.05;;;3.67;;
21567;SDS011;10944;42.590;12.630;2023-02-26T08:14:20;9.93;;;4.63;;
21567;SDS011;10944;42.590;12.630;2023-02-26T08:16:46;9.00;;;4.85;;
21567;SDS011;10944;42.590;12.630;2023-02-26T08:19:11;9.48;;;4.63;;
21567;SDS011;10944;42.590;12.630;2023-02-26T08:21:37;10.85;;;5.10;;
21567;SDS011;10944;42.590;12.630;2023-02-26T08:24:03;10.95;;;4.40;;
21567;SDS011;10944;42.590;12.630;2023-02-26T08:26:28;8.90;;;3.90;;
21567;SDS011;10944;42.590;12.630;2023-02-26T08:28:55;7.40;;;3.38;;
21567;SDS011;10944;42.590;12.630;2023-02-26T08:31:21;8.80;;;3.97;;
21567;SDS011;10944;42.590;12.630;2023-02-26T08:33:47;9.05;;;2.83;;
21567;SDS011;10944;42.590;12.630;2023-02-26T08:36:12;8.50;;;2.65;;
21567;SDS011;10944;42.590;12.630;2023-02-26T08:38:38;7.75;;;3.30;;
21567;SDS011;10944;42.590;12.630;2023-02-26T08:41:04;5.43;;;2.70;;
21567;SDS011;10944;42.590;12.630;2023-02-26T08:43:30;6.13;;;2.60;;
21567;SDS011;10944;42.590;12.630;2023-02-26T08:45:56;5.60;;;2.10;;
21567;SDS011;10944;42.590;12.630;2023-02-26T08:48:23;7.82;;;2.35;;
21567;SDS011;10944;42.590;12.630;2023-02-26T08:50:49;8.68;;;2.63;;
21567;SDS011;10944;42.590;12.630;2023-02-26T08:53:15;18.85;;;11.15;;
21567;SDS011;10944;42.590;12.630;2023-02-26T08:55:41;6.82;;;3.30;;
21567;SDS011;10944;42.590;12.630;2023-02-26T08:58:09;5.82;;;2.40;;
21567;SDS011;10944;42.590;12.630;2023-02-26T09:00:35;4.45;;;1.95;;
21567;SDS011;10944;42.590;12.630;2023-02-26T09:03:00;5.20;;;2.47;;
21567;SDS011;10944;42.590;12.630;2023-02-26T09:05:26;7.30;;;2.50;;
21567;SDS011;10944;42.590;12.630;2023-02-26T09:07:52;8.50;;;4.70;;
21567;SDS011;10944;42.590;12.630;2023-02-26T09:10:18;8.65;;;4.97;;
21567;SDS011;10944;42.590;12.630;2023-02-26T09:12:44;10.50;;;4.60;;
21567;SDS011;10944;42.590;12.630;2023-02-26T09:15:11;8.30;;;4.55;;
21567;SDS011;10944;42.590;12.630;2023-02-26T09:17:38;10.57;;;4.32;;
21567;SDS011;10944;42.590;12.630;2023-02-26T09:20:04;9.13;;;3.47;;
21567;SDS011;10944;42.590;12.630;2023-02-26T09:22:30;7.35;;;3.72;;
21567;SDS011;10944;42.590;12.630;2023-02-26T09:24:57;7.95;;;4.50;;
21567;SDS011;10944;42.590;12.630;2023-02-26T09:27:23;7.78;;;4.05;;
21567;SDS011;10944;42.590;12.630;2023-02-26T09:29:49;6.40;;;3.80;;
21567;SDS011;10944;42.590;12.630;2023-02-26T09:32:15;7.10;;;4.00;;
21567;SDS011;10944;42.590;12.630;2023-02-26T09:34:40;8.48;;;5.00;;
21567;SDS011;10944;42.590;12.630;2023-02-26T09:37:07;6.28;;;3.90;;
21567;SDS011;10944;42.590;12.630;2023-02-26T09:39:33;7.57;;;4.20;;
21567;SDS011;10944;42.590;12.630;2023-02-26T09:44:43;10.63;;;4.45;;
21567;SDS011;10944;42.590;12.630;2023-02-26T09:47:20;10.40;;;5.30;;
21567;SDS011;10944;42.590;12.630;2023-02-26T09:55:09;21.48;;;14.85;;
21567;SDS011;10944;42.590;12.630;2023-02-26T09:57:45;22.73;;;16.30;;
21567;SDS011;10944;42.590;12.630;2023-02-26T10:02:59;15.98;;;9.20;;
21567;SDS011;10944;42.590;12.630;2023-02-26T10:05:52;16.77;;;10.77;;
21567;SDS011;10944;42.590;12.630;2023-02-26T10:08:22;16.52;;;13.02;;
21567;SDS011;10944;42.590;12.630;2023-02-26T10:10:57;15.82;;;10.25;;
21567;SDS011;10944;42.590;12.630;2023-02-26T10:13:37;10.02;;;5.97;;
21567;SDS011;10944;42.590;12.630;2023-02-26T10:16:12;10.75;;;7.03;;
21567;SDS011;10944;42.590;12.630;2023-02-26T10:18:48;11.75;;;8.25;;
21567;SDS011;10944;42.590;12.630;2023-02-26T10:21:50;8.68;;;5.90;;
21567;SDS011;10944;42.590;12.630;2023-02-26T10:27:04;11.82;;;7.13;;
21567;SDS011;10944;42.590;12.630;2023-02-26T10:29:39;11.65;;;6.88;;
21567;SDS011;10944;42.590;12.630;2023-02-26T10:37:19;10.68;;;4.40;;
21567;SDS011;10944;42.590;12.630;2023-02-26T10:39:55;5.63;;;3.28;;
21567;SDS011;10944;42.590;12.630;2023-02-26T10:42:45;7.10;;;3.20;;
21567;SDS011;10944;42.590;12.630;2023-02-26T10:48:37;5.60;;;3.05;;
21567;SDS011;10944;42.590;12.630;2023-02-26T10:51:17;5.35;;;2.60;;
21567;SDS011;10944;42.590;12.630;2023-02-26T10:53:46;5.20;;;2.20;;
21567;SDS011;10944;42.590;12.630;2023-02-26T10:56:21;5.70;;;2.60;;
21567;SDS011;10944;42.590;12.630;2023-02-26T10:58:53;4.47;;;2.85;;
21567;SDS011;10944;42.590;12.630;2023-02-26T11:01:19;3.35;;;1.75;;
21567;SDS011;10944;42.590;12.630;2023-02-26T11:03:48;36.50;;;21.33;;
21567;SDS011;10944;42.590;12.630;2023-02-26T11:06:20;6.97;;;4.03;;
21567;SDS011;10944;42.590;12.630;2023-02-26T11:14:32;7.10;;;4.22;;
21567;SDS011;10944;42.590;12.630;2023-02-26T11:17:40;9.63;;;5.47;;
21567;SDS011;10944;42.590;12.630;2023-02-26T11:20:55;12.95;;;6.30;;
21567;SDS011;10944;42.590;12.630;2023-02-26T11:22:53;11.60;;;6.85;;
21567;SDS011;10944;42.590;12.630;2023-02-26T11:25:22;11.30;;;5.82;;
21567;SDS011;10944;42.590;12.630;2023-02-26T11:27:51;24.45;;;14.20;;
21567;SDS011;10944;42.590;12.630;2023-02-26T11:30:24;17.90;;;8.57;;
21567;SDS011;10944;42.590;12.630;2023-02-26T11:32:53;12.95;;;8.70;;
21567;SDS011;10944;42.590;12.630;2023-02-26T11:35:22;15.73;;;10.48;;
21567;SDS011;10944;42.590;12.630;2023-02-26T11:37:54;19.70;;;12.25;;
21567;SDS011;10944;42.590;12.630;2023-02-26T11:40:34;21.75;;;13.13;;
21567;SDS011;10944;42.590;12.630;2023-02-26T11:43:04;17.75;;;9.95;;
21567;SDS011;10944;42.590;12.630;2023-02-26T11:45:33;17.70;;;10.00;;
21567;SDS011;10944;42.590;12.630;2023-02-26T11:48:06;19.92;;;6.88;;
21567;SDS011;10944;42.590;12.630;2023-02-26T11:50:41;14.85;;;7.97;;
21567;SDS011;10944;42.590;12.630;2023-02-26T11:53:18;20.20;;;7.47;;
21567;SDS011;10944;42.590;12.630;2023-02-26T11:55:57;24.35;;;8.73;;
21567;SDS011;10944;42.590;12.630;2023-02-26T11:58:26;23.52;;;7.50;;
21567;SDS011;10944;42.590;12.630;2023-02-26T12:00:57;17.15;;;7.07;;
21567;SDS011;10944;42.590;12.630;2023-02-26T12:03:26;22.60;;;8.73;;
21567;SDS011;10944;42.590;12.630;2023-02-26T12:05:53;21.17;;;7.43;;
21567;SDS011;10944;42.590;12.630;2023-02-26T12:13:38;22.02;;;8.65;;
21567;SDS011;10944;42.590;12.630;2023-02-26T12:21:57;23.00;;;8.68;;
21567;SDS011;10944;42.590;12.630;2023-02-26T12:24:40;21.67;;;7.57;;
21567;SDS011;10944;42.590;12.630;2023-02-26T12:43:15;24.40;;;6.88;;
21567;SDS011;10944;42.590;12.630;2023-02-26T12:51:24;22.60;;;7.60;;
21567;SDS011;10944;42.590;12.630;2023-02-26T13:12:06;19.60;;;6.65;;
21567;SDS011;10944;42.590;12.630;2023-02-26T13:14:45;26.40;;;7.28;;
21567;SDS011;10944;42.590;12.630;2023-02-26T13:22:50;23.45;;;8.20;;
21567;SDS011;10944;42.590;12.630;2023-02-26T13:25:36;20.63;;;5.68;;
21567;SDS011;10944;42.590;12.630;2023-02-26T13:30:43;22.52;;;5.47;;
21567;SDS011;10944;42.590;12.630;2023-02-26T13:33:15;18.75;;;5.63;;
21567;SDS011;10944;42.590;12.630;2023-02-26T13:35:43;18.75;;;5.45;;
21567;SDS011;10944;42.590;12.630;2023-02-26T13:52:21;22.98;;;7.05;;
21567;SDS011;10944;42.590;12.630;2023-02-26T13:54:49;20.33;;;6.40;;
21567;SDS011;10944;42.590;12.630;2023-02-26T13:57:28;23.35;;;6.93;;
21567;SDS011;10944;42.590;12.630;2023-02-26T14:02:54;20.77;;;6.72;;
21567;SDS011;10944;42.590;12.630;2023-02-26T14:10:56;18.02;;;5.80;;
21567;SDS011;10944;42.590;12.630;2023-02-26T14:13:36;21.85;;;8.02;;
21567;SDS011;10944;42.590;12.630;2023-02-26T14:16:19;20.50;;;6.70;;
21567;SDS011;10944;42.590;12.630;2023-02-26T14:24:01;17.40;;;5.45;;
21567;SDS011;10944;42.590;12.630;2023-02-26T14:26:31;18.08;;;5.95;;
21567;SDS011;10944;42.590;12.630;2023-02-26T14:31:45;16.08;;;5.18;;
21567;SDS011;10944;42.590;12.630;2023-02-26T14:34:31;16.55;;;6.32;;
21567;SDS011;10944;42.590;12.630;2023-02-26T14:37:05;15.00;;;5.72;;
21567;SDS011;10944;42.590;12.630;2023-02-26T14:42:20;17.00;;;5.55;;
21567;SDS011;10944;42.590;12.630;2023-02-26T14:44:55;13.00;;;4.90;;
21567;SDS011;10944;42.590;12.630;2023-02-26T14:47:38;13.02;;;4.72;;
21567;SDS011;10944;42.590;12.630;2023-02-26T14:50:05;16.35;;;4.28;;
21567;SDS011;10944;42.590;12.630;2023-02-26T14:55:52;15.63;;;4.28;;
21567;SDS011;10944;42.590;12.630;2023-02-26T14:58:37;14.40;;;3.30;;
21567;SDS011;10944;42.590;12.630;2023-02-26T15:09:40;14.57;;;3.92;;
21567;SDS011;10944;42.590;12.630;2023-02-26T15:15:23;11.80;;;4.28;;
21567;SDS011;10944;42.590;12.630;2023-02-26T15:18:01;18.88;;;4.13;;
21567;SDS011;10944;42.590;12.630;2023-02-26T15:20:47;27.83;;;11.50;;
21567;SDS011;10944;42.590;12.630;2023-02-26T15:23:32;26.55;;;8.73;;
21567;SDS011;10944;42.590;12.630;2023-02-26T15:26:00;19.95;;;7.03;;
21567;SDS011;10944;42.590;12.630;2023-02-26T15:28:29;14.43;;;5.57;;
21567;SDS011;10944;42.590;12.630;2023-02-26T15:31:00;12.85;;;3.97;;
21567;SDS011;10944;42.590;12.630;2023-02-26T15:33:28;11.00;;;3.88;;
21567;SDS011;10944;42.590;12.630;2023-02-26T15:35:56;11.70;;;3.50;;
21567;SDS011;10944;42.590;12.630;2023-02-26T15:38:23;9.27;;;3.10;;
21567;SDS011;10944;42.590;12.630;2023-02-26T15:40:51;10.13;;;3.22;;
21567;SDS011;10944;42.590;12.630;2023-02-26T15:43:21;13.50;;;3.30;;
21567;SDS011;10944;42.590;12.630;2023-02-26T15:45:50;13.52;;;3.97;;
21567;SDS011;10944;42.590;12.630;2023-02-26T15:48:20;12.45;;;3.80;;
21567;SDS011;10944;42.590;12.630;2023-02-26T15:50:47;12.43;;;4.00;;
21567;SDS011;10944;42.590;12.630;2023-02-26T15:53:19;12.40;;;4.30;;
21567;SDS011;10944;42.590;12.630;2023-02-26T15:55:55;12.30;;;3.40;;
21567;SDS011;10944;42.590;12.630;2023-02-26T15:58:33;9.65;;;3.05;;
21567;SDS011;10944;42.590;12.630;2023-02-26T16:01:16;9.82;;;3.55;;
21567;SDS011;10944;42.590;12.630;2023-02-26T16:03:44;11.18;;;3.38;;
21567;SDS011;10944;42.590;12.630;2023-02-26T16:06:12;14.73;;;4.43;;
21567;SDS011;10944;42.590;12.630;2023-02-26T16:08:42;14.15;;;6.03;;
21567;SDS011;10944;42.590;12.630;2023-02-26T16:11:07;22.63;;;10.18;;
21567;SDS011;10944;42.590;12.630;2023-02-26T16:13:35;26.80;;;11.65;;
21567;SDS011;10944;42.590;12.630;2023-02-26T16:16:04;22.23;;;11.95;;
21567;SDS011;10944;42.590;12.630;2023-02-26T16:18:39;31.20;;;16.80;;
21567;SDS011;10944;42.590;12.630;2023-02-26T16:21:06;26.30;;;16.45;;
21567;SDS011;10944;42.590;12.630;2023-02-26T16:23:42;26.08;;;15.75;;
21567;SDS011;10944;42.590;12.630;2023-02-26T16:27:11;30.17;;;17.30;;
21567;SDS011;10944;42.590;12.630;2023-02-26T16:29:11;31.27;;;17.52;;
21567;SDS011;10944;42.590;12.630;2023-02-26T16:31:44;27.52;;;16.52;;
21567;SDS011;10944;42.590;12.630;2023-02-26T16:34:23;26.33;;;16.20;;
21567;SDS011;10944;42.590;12.630;2023-02-26T16:36:52;24.90;;;15.32;;
21567;SDS011;10944;42.590;12.630;2023-02-26T16:39:22;33.80;;;16.40;;
21567;SDS011;10944;42.590;12.630;2023-02-26T16:42:31;45.33;;;27.42;;
21567;SDS011;10944;42.590;12.630;2023-02-26T16:45:00;41.22;;;26.52;;
21567;SDS011;10944;42.590;12.630;2023-02-26T16:47:43;36.90;;;24.48;;
21567;SDS011;10944;42.590;12.630;2023-02-26T16:50:14;33.20;;;21.27;;
21567;SDS011;10944;42.590;12.630;2023-02-26T16:52:54;30.10;;;19.08;;
21567;SDS011;10944;42.590;12.630;2023-02-26T16:55:33;32.78;;;19.38;;
21567;SDS011;10944;42.590;12.630;2023-02-26T16:58:01;35.13;;;22.00;;
21567;SDS011;10944;42.590;12.630;2023-02-26T17:00:30;34.92;;;22.60;;
21567;SDS011;10944;42.590;12.630;2023-02-26T17:03:09;32.63;;;23.10;;
21567;SDS011;10944;42.590;12.630;2023-02-26T17:05:39;37.47;;;23.27;;
21567;SDS011;10944;42.590;12.630;2023-02-26T17:08:08;29.58;;;21.65;;
21567;SDS011;10944;42.590;12.630;2023-02-26T17:10:47;39.42;;;24.33;;
21567;SDS011;10944;42.590;12.630;2023-02-26T17:13:25;36.50;;;24.63;;
21567;SDS011;10944;42.590;12.630;2023-02-26T17:15:53;39.33;;;25.73;;
21567;SDS011;10944;42.590;12.630;2023-02-26T17:18:25;42.22;;;26.65;;
21567;SDS011;10944;42.590;12.630;2023-02-26T17:20:50;44.08;;;28.17;;
21567;SDS011;10944;42.590;12.630;2023-02-26T17:23:17;49.30;;;33.85;;
21567;SDS011;10944;42.590;12.630;2023-02-26T17:25:46;39.72;;;27.92;;
21567;SDS011;10944;42.590;12.630;2023-02-26T17:28:25;29.92;;;21.30;;
21567;SDS011;10944;42.590;12.630;2023-02-26T17:30:52;26.83;;;18.67;;
21567;SDS011;10944;42.590;12.630;2023-02-26T17:33:19;27.37;;;19.27;;
21567;SDS011;10944;42.590;12.630;2023-02-26T17:35:45;27.38;;;19.38;;
21567;SDS011;10944;42.590;12.630;2023-02-26T17:38:12;25.98;;;19.70;;
21567;SDS011;10944;42.590;12.630;2023-02-26T17:40:41;31.15;;;23.05;;
21567;SDS011;10944;42.590;12.630;2023-02-26T17:43:09;33.63;;;23.67;;
21567;SDS011;10944;42.590;12.630;2023-02-26T17:45:35;39.00;;;24.90;;
21567;SDS011;10944;42.590;12.630;2023-02-26T17:48:04;38.75;;;27.35;;
21567;SDS011;10944;42.590;12.630;2023-02-26T17:53:08;55.30;;;39.73;;
21567;SDS011;10944;42.590;12.630;2023-02-26T17:55:35;54.90;;;37.58;;
21567;SDS011;10944;42.590;12.630;2023-02-26T17:58:03;62.28;;;42.40;;